Time;durP1;ratioP1;P1;durP2;ratioP2;P2;SDS_P1;SDS_P2;PMS_P1;PMS_P2;Temp;Humidity;BMP_temperature;BMP_pressure;BME280_temperature;BME280_humidity;BME280_pressure;Samples;Min_cycle;Max_cycle;Signal;HPM_P1;HPM_P2
2021/09/02 00:01:21;;;;;;;21.33;14.80;;;9.70;99.90;;;;;;4949337;29;20418;-94
2021/09/02 00:03:53;;;;;;;20.00;14.67;;;9.70;99.90;;;;;;4948830;29;20488;-96
2021/09/02 00:06:25;;;;;;;20.80;14.30;;;9.70;99.90;;;;;;4948545;29;20433;-95
2021/09/02 00:08:52;;;;;;;19.35;14.40;;;9.60;99.90;;;;;;4948696;28;20409;-96
2021/09/02 00:11:19;;;;;;;22.08;14.60;;;9.70;99.90;;;;;;4972338;23;20545;-95
2021/09/02 00:13:59;;;;;;;22.20;14.60;;;9.70;99.90;;;;;;4950334;29;20433;-95
2021/09/02 00:16:27;;;;;;;18.80;14.18;;;9.70;99.90;;;;;;4951761;28;20489;-95
2021/09/02 00:18:54;;;;;;;19.77;14.20;;;9.70;99.90;;;;;;4951446;29;20497;-96
2021/09/02 00:21:33;;;;;;;22.33;14.27;;;9.70;99.90;;;;;;4955676;23;20866;-95
2021/09/02 00:24:13;;;;;;;20.10;14.05;;;9.70;99.90;;;;;;4952154;29;20486;-96
2021/09/02 00:26:46;;;;;;;18.70;13.67;;;9.80;99.90;;;;;;4961581;28;20410;-96
2021/09/02 00:29:24;;;;;;;20.77;14.82;;;9.80;99.90;;;;;;4971347;23;20467;-95
2021/09/02 00:31:57;;;;;;;23.20;14.80;;;9.80;99.90;;;;;;4930567;29;20439;-95
2021/09/02 00:34:27;;;;;;;21.35;14.48;;;9.80;99.90;;;;;;4932486;29;20440;-96
2021/09/02 00:36:59;;;;;;;26.38;15.38;;;9.90;99.90;;;;;;4950010;23;20497;-95
2021/09/02 00:39:30;;;;;;;22.50;14.70;;;9.80;99.90;;;;;;4953588;29;20456;-96
2021/09/02 00:42:00;;;;;;;20.35;14.73;;;9.80;99.90;;;;;;4953498;29;20436;-94
2021/09/02 00:44:45;;;;;;;21.20;14.18;;;9.80;99.90;;;;;;4951863;29;20414;-95
2021/09/02 00:47:44;;;;;;;21.55;14.32;;;9.80;99.90;;;;;;4955071;29;20492;-94
2021/09/02 00:50:18;;;;;;;23.25;14.60;;;9.80;99.90;;;;;;4954783;29;20437;-94
2021/09/02 00:52:50;;;;;;;21.08;14.75;;;9.80;99.90;;;;;;4952709;29;20470;-95
2021/09/02 00:57:51;;;;;;;22.57;14.70;;;9.80;99.90;;;;;;4929646;29;20532;-95
2021/09/02 01:00:19;;;;;;;24.00;14.82;;;9.80;99.90;;;;;;4970305;23;20449;-95
2021/09/02 01:02:49;;;;;;;23.27;15.07;;;9.70;99.90;;;;;;4951041;29;20934;-95
2021/09/02 01:05:21;;;;;;;21.83;14.93;;;9.70;99.90;;;;;;4950978;29;20443;-95
2021/09/02 01:07:51;;;;;;;23.88;16.27;;;9.50;99.90;;;;;;4952115;29;20447;-95
2021/09/02 01:10:21;;;;;;;23.98;15.30;;;9.60;99.90;;;;;;4968710;23;20709;-95
2021/09/02 01:12:51;;;;;;;21.17;14.90;;;9.70;99.90;;;;;;4932830;29;20434;-95
2021/09/02 01:15:27;;;;;;;26.52;16.60;;;9.70;99.90;;;;;;4935967;29;20533;-96
2021/09/02 01:17:56;;;;;;;27.33;17.80;;;9.60;99.90;;;;;;4975851;23;20532;-95
2021/09/02 01:20:27;;;;;;;24.48;16.65;;;9.60;99.90;;;;;;4956296;23;20442;-95
2021/09/02 01:22:57;;;;;;;28.20;18.20;;;9.60;99.90;;;;;;4957748;23;20453;-96
2021/09/02 01:25:40;;;;;;;25.85;17.33;;;9.60;99.90;;;;;;4956487;23;20615;-94
2021/09/02 01:28:13;;;;;;;29.92;19.25;;;9.50;99.90;;;;;;4951959;29;20958;-95
2021/09/02 01:30:42;;;;;;;31.00;18.60;;;9.50;99.90;;;;;;4948823;29;20907;-95
2021/09/02 01:33:16;;;;;;;31.65;20.63;;;9.50;99.90;;;;;;4947010;29;20447;-95
2021/09/02 01:35:43;;;;;;;33.80;21.20;;;9.40;99.90;;;;;;4948655;29;20435;-96
2021/09/02 01:38:14;;;;;;;32.60;19.95;;;9.40;99.90;;;;;;4956654;23;20459;-96
2021/09/02 01:40:46;;;;;;;32.00;19.75;;;9.40;99.90;;;;;;4964682;23;20783;-96
2021/09/02 01:43:24;;;;;;;30.90;19.52;;;9.40;99.90;;;;;;4946603;29;20529;-96
2021/09/02 01:46:00;;;;;;;33.63;20.23;;;9.40;99.90;;;;;;4950666;29;20483;-95
2021/09/02 01:48:40;;;;;;;37.17;23.23;;;9.20;99.90;;;;;;4950371;29;20435;-95
2021/09/02 01:51:10;;;;;;;47.00;25.40;;;9.10;99.90;;;;;;4948478;29;20759;-95
2021/09/02 01:53:40;;;;;;;50.35;27.58;;;9.10;99.90;;;;;;4950273;29;20432;-95
2021/09/02 01:56:15;;;;;;;54.25;28.27;;;9.10;99.90;;;;;;4989292;23;20422;-95
2021/09/02 01:58:43;;;;;;;41.75;22.25;;;9.10;99.90;;;;;;4965658;23;20461;-95
2021/09/02 02:01:10;;;;;;;48.65;26.98;;;9.10;99.90;;;;;;4985690;23;20541;-95
2021/09/02 02:03:37;;;;;;;55.47;28.47;;;9.00;99.90;;;;;;4952379;29;20449;-96
2021/09/02 02:06:05;;;;;;;49.42;26.63;;;9.10;99.90;;;;;;4953752;29;20417;-95
2021/09/02 02:08:35;;;;;;;59.83;29.23;;;9.10;99.90;;;;;;4953546;29;20436;-95
2021/09/02 02:11:03;;;;;;;47.65;26.00;;;9.20;99.90;;;;;;4961187;23;20446;-96
2021/09/02 02:13:31;;;;;;;46.83;25.63;;;9.20;99.90;;;;;;4981558;23;20502;-95
2021/09/02 02:16:21;;;;;;;59.53;28.67;;;9.20;99.90;;;;;;4968849;23;20936;-96
2021/09/02 02:18:48;;;;;;;50.97;27.97;;;9.20;99.90;;;;;;4914155;29;20433;-96
2021/09/02 02:21:24;;;;;;;51.97;28.37;;;9.20;99.90;;;;;;4979030;23;20440;-95
2021/09/02 02:24:25;;;;;;;56.38;28.27;;;9.20;99.90;;;;;;4952264;28;20444;-95
2021/09/02 02:27:01;;;;;;;62.33;30.00;;;9.20;99.90;;;;;;4951557;29;20430;-96
2021/09/02 02:29:33;;;;;;;49.40;24.42;;;9.30;99.90;;;;;;4982390;23;20447;-95
2021/09/02 02:32:00;;;;;;;47.73;23.20;;;9.20;99.90;;;;;;4951081;29;20467;-95
2021/09/02 02:34:27;;;;;;;59.65;26.70;;;9.20;99.90;;;;;;4953097;23;20514;-95
2021/09/02 02:37:35;;;;;;;58.28;28.92;;;9.10;99.90;;;;;;4948196;29;20510;-95
2021/09/02 02:40:09;;;;;;;77.45;31.55;;;9.10;99.90;;;;;;4953619;23;20467;-95
2021/09/02 02:42:36;;;;;;;70.60;33.10;;;9.00;99.90;;;;;;4952259;23;20900;-95
2021/09/02 02:45:16;;;;;;;65.78;30.35;;;9.10;99.90;;;;;;4928771;29;20440;-95
2021/09/02 02:47:47;;;;;;;52.23;26.53;;;9.20;99.90;;;;;;4947678;23;20422;-96
2021/09/02 02:50:18;;;;;;;63.97;28.55;;;9.10;99.90;;;;;;4948148;29;20519;-95
2021/09/02 02:52:45;;;;;;;83.37;37.63;;;9.10;99.90;;;;;;4948766;29;20486;-96
2021/09/02 02:55:15;;;;;;;65.97;28.90;;;9.10;99.90;;;;;;4948791;29;20439;-95
2021/09/02 02:57:43;;;;;;;71.50;29.30;;;9.20;99.90;;;;;;4947060;29;20494;-95
2021/09/02 03:00:13;;;;;;;72.95;33.05;;;9.10;99.90;;;;;;4952220;23;20411;-95
2021/09/02 03:02:49;;;;;;;54.90;25.53;;;9.00;99.90;;;;;;4946104;29;20950;-95
2021/09/02 03:05:16;;;;;;;64.30;29.00;;;9.00;99.90;;;;;;4946482;29;20431;-95
2021/09/02 03:07:51;;;;;;;57.35;27.00;;;9.10;99.90;;;;;;4946698;29;21026;-95
2021/09/02 03:10:18;;;;;;;53.93;26.53;;;9.10;99.90;;;;;;4955782;23;20863;-95
2021/09/02 03:12:46;;;;;;;61.65;27.90;;;9.20;99.90;;;;;;4946352;29;20442;-96
2021/09/02 03:15:18;;;;;;;62.38;31.85;;;9.20;99.90;;;;;;4946967;29;20435;-95
2021/09/02 03:17:47;;;;;;;68.07;31.20;;;9.10;99.90;;;;;;4947136;29;20458;-95
2021/09/02 03:20:15;;;;;;;76.30;33.63;;;9.10;99.90;;;;;;4948723;29;20431;-94
2021/09/02 03:22:46;;;;;;;77.83;35.37;;;9.10;99.90;;;;;;4947114;29;20759;-95
2021/09/02 03:25:16;;;;;;;69.90;30.63;;;9.20;99.90;;;;;;4946073;29;20784;-96
2021/09/02 03:27:44;;;;;;;73.47;31.90;;;9.10;99.90;;;;;;4946067;29;20856;-95
2021/09/02 03:30:14;;;;;;;64.85;27.95;;;9.10;99.90;;;;;;4953968;23;20421;-96
2021/09/02 03:32:42;;;;;;;53.20;25.30;;;9.00;99.90;;;;;;4946635;29;20473;-95
2021/09/02 03:35:10;;;;;;;66.45;28.15;;;8.90;99.90;;;;;;4960060;23;20444;-95
2021/09/02 03:37:38;;;;;;;61.80;29.15;;;8.90;99.90;;;;;;4951853;29;20446;-95
2021/09/02 03:40:11;;;;;;;60.00;28.60;;;8.90;99.90;;;;;;4956725;23;20532;-95
2021/09/02 03:42:39;;;;;;;97.53;37.97;;;8.80;99.90;;;;;;4955658;23;20431;-95
2021/09/02 03:45:09;;;;;;;61.47;22.77;;;8.80;99.90;;;;;;4964173;23;20454;-95
2021/09/02 03:50:05;;;;;;;113.10;39.93;;;8.70;99.90;;;;;;5000809;23;20505;-95
2021/09/02 03:52:35;;;;;;;91.88;33.88;;;8.70;99.90;;;;;;4954956;28;20414;-95
2021/09/02 03:55:12;;;;;;;102.25;37.85;;;8.80;99.90;;;;;;5094358;23;20465;-95
2021/09/02 03:57:59;;;;;;;126.95;50.00;;;8.90;99.90;;;;;;4958587;28;20450;-96
2021/09/02 04:00:32;;;;;;;97.33;42.60;;;8.90;99.90;;;;;;4958024;29;20410;-95
2021/09/02 04:03:32;;;;;;;75.07;34.92;;;9.00;99.90;;;;;;4975396;23;20617;-96
2021/09/02 04:06:10;;;;;;;106.03;37.47;;;9.10;99.90;;;;;;4952584;23;20439;-96
2021/09/02 04:08:45;;;;;;;81.07;33.73;;;9.20;99.90;;;;;;4945913;29;20422;-95
2021/09/02 04:14:08;;;;;;;116.13;39.15;;;9.00;99.90;;;;;;4949676;29;20494;-94
2021/09/02 04:16:52;;;;;;;104.28;36.35;;;8.90;99.90;;;;;;4933216;29;20432;-94
2021/09/02 04:19:21;;;;;;;90.13;39.65;;;8.90;99.90;;;;;;4956560;23;20542;-95
2021/09/02 04:21:53;;;;;;;131.37;44.80;;;8.80;99.90;;;;;;4947761;29;20439;-95
2021/09/02 04:24:21;;;;;;;122.28;43.15;;;8.80;99.90;;;;;;4971374;23;20504;-95
2021/09/02 04:26:48;;;;;;;95.60;36.90;;;8.80;99.90;;;;;;4954260;23;20423;-95
2021/09/02 04:29:28;;;;;;;135.95;46.95;;;8.80;99.90;;;;;;4946725;29;20446;-95
2021/09/02 04:31:55;;;;;;;117.72;46.42;;;8.70;99.90;;;;;;4927109;29;20508;-95
2021/09/02 04:34:28;;;;;;;207.18;54.00;;;8.80;99.90;;;;;;4950144;23;20446;-95
2021/09/02 04:36:55;;;;;;;118.90;41.22;;;8.80;99.90;;;;;;4968200;23;20545;-95
2021/09/02 04:39:23;;;;;;;156.20;51.28;;;8.80;99.90;;;;;;4944568;29;20510;-95
2021/09/02 04:41:50;;;;;;;133.07;49.95;;;8.90;99.90;;;;;;4949370;29;20423;-95
2021/09/02 04:44:18;;;;;;;132.13;51.40;;;8.80;99.90;;;;;;4952243;23;20451;-96
2021/09/02 04:46:46;;;;;;;111.22;47.03;;;9.00;99.90;;;;;;4945491;29;20435;-95
2021/09/02 04:49:19;;;;;;;110.97;45.45;;;9.10;99.90;;;;;;4947016;29;20506;-95
2021/09/02 04:51:46;;;;;;;84.88;40.03;;;9.10;99.90;;;;;;4954015;23;20447;-95
2021/09/02 04:57:19;;;;;;;85.27;39.83;;;9.20;99.90;;;;;;4888488;29;20543;-95
2021/09/02 04:59:52;;;;;;;73.65;35.70;;;9.20;99.90;;;;;;4889867;29;21049;-95
2021/09/02 05:02:29;;;;;;;85.40;40.38;;;9.20;99.90;;;;;;4875067;29;20853;-95
2021/09/02 05:05:06;;;;;;;68.70;34.70;;;9.40;99.90;;;;;;4994575;23;20382;-96
2021/09/02 05:07:37;;;;;;;75.68;33.80;;;9.30;99.90;;;;;;4964630;23;20413;-96
2021/09/02 05:10:12;;;;;;;64.55;32.60;;;9.30;99.90;;;;;;4951106;29;20461;-95
2021/09/02 05:12:46;;;;;;;74.10;33.28;;;9.20;99.90;;;;;;4957749;23;20471;-96
2021/09/02 05:18:18;;;;;;;65.80;31.55;;;9.10;99.90;;;;;;4982011;23;20422;-96
2021/09/02 05:21:03;;;;;;;74.53;37.00;;;9.00;99.90;;;;;;4957115;29;20525;-96
2021/09/02 05:23:36;;;;;;;64.68;32.70;;;8.90;99.90;;;;;;4955335;28;20442;-95
2021/09/02 05:26:03;;;;;;;73.70;35.28;;;8.90;99.90;;;;;;4954017;29;20529;-96
2021/09/02 05:28:32;;;;;;;110.47;43.50;;;8.90;99.90;;;;;;4960471;23;20536;-95
2021/09/02 05:31:00;;;;;;;89.72;35.17;;;8.90;99.90;;;;;;4964428;23;20836;-96
2021/09/02 05:33:40;;;;;;;71.37;34.50;;;8.90;99.90;;;;;;4959389;28;20442;-95
2021/09/02 05:36:07;;;;;;;100.68;41.20;;;8.90;99.90;;;;;;4954599;28;20506;-94
2021/09/02 05:38:41;;;;;;;84.70;38.70;;;8.90;99.90;;;;;;4959646;23;20460;-95
2021/09/02 05:41:08;;;;;;;92.25;41.20;;;8.90;99.90;;;;;;4952710;29;20471;-95
2021/09/02 05:43:43;;;;;;;89.35;38.17;;;9.00;99.90;;;;;;4968504;23;20441;-95
2021/09/02 05:46:10;;;;;;;99.37;43.37;;;9.00;99.90;;;;;;4956336;29;20456;-95
2021/09/02 05:48:40;;;;;;;82.35;40.00;;;9.10;99.90;;;;;;4948527;29;20505;-95
2021/09/02 05:51:07;;;;;;;98.85;44.70;;;9.20;99.90;;;;;;4947951;29;20892;-95
2021/09/02 05:53:35;;;;;;;91.25;40.25;;;9.30;99.90;;;;;;4951979;29;20453;-96
2021/09/02 05:56:10;;;;;;;88.65;38.97;;;9.50;99.90;;;;;;4960215;23;20430;-94
2021/09/02 05:58:37;;;;;;;68.68;34.78;;;9.60;99.90;;;;;;4969142;23;20543;-95
2021/09/02 06:01:15;;;;;;;65.70;32.03;;;9.70;99.90;;;;;;4948918;29;20489;-94
2021/09/02 06:04:00;;;;;;;68.40;31.88;;;9.80;99.90;;;;;;4935090;29;20780;-96
2021/09/02 06:06:43;;;;;;;;;;;;;;;;;;;;;
2021/09/02 06:09:25;;;;;;;58.35;31.92;;;10.00;99.90;;;;;;4946750;28;20516;-96
2021/09/02 06:11:57;;;;;;;48.17;27.25;;;10.30;99.90;;;;;;4968073;23;20429;-96
2021/09/02 06:14:30;;;;;;;40.08;23.83;;;10.50;99.90;;;;;;4954077;28;20473;-95
2021/09/02 06:17:02;;;;;;;43.47;24.05;;;10.70;99.90;;;;;;4959643;23;20441;-96
2021/09/02 06:19:38;;;;;;;45.08;22.83;;;10.70;99.90;;;;;;4952893;28;20441;-95
2021/09/02 06:22:06;;;;;;;39.28;22.27;;;10.70;99.90;;;;;;4942208;23;20491;-95
2021/09/02 06:24:33;;;;;;;46.67;25.40;;;10.60;99.90;;;;;;4941890;23;20431;-95
2021/09/02 06:27:00;;;;;;;34.60;18.40;;;10.80;99.90;;;;;;4946112;23;20451;-95
2021/09/02 06:29:27;;;;;;;21.50;13.35;;;11.60;99.90;;;;;;4926761;29;20418;-95
2021/09/02 06:31:55;;;;;;;18.88;12.68;;;12.60;99.90;;;;;;4929984;29;20438;-96
2021/09/02 06:34:22;;;;;;;16.58;11.13;;;14.10;99.90;;;;;;4928053;29;20926;-95
2021/09/02 06:36:49;;;;;;;16.30;9.98;;;15.10;99.90;;;;;;4925115;29;20439;-96
2021/09/02 06:39:16;;;;;;;15.70;9.18;;;15.80;99.90;;;;;;4923923;29;20443;-95
2021/09/02 06:41:43;;;;;;;13.77;8.77;;;16.00;99.90;;;;;;4927346;29;20507;-95
2021/09/02 06:44:33;;;;;;;12.43;8.70;;;16.00;99.90;;;;;;4931270;29;20432;-94
2021/09/02 06:47:00;;;;;;;12.27;8.30;;;16.00;99.90;;;;;;4925234;29;20776;-95
2021/09/02 06:49:32;;;;;;;14.60;7.93;;;15.60;99.90;;;;;;4930975;29;20475;-96
2021/09/02 06:59:01;;;;;;;13.50;8.65;;;15.20;99.90;;;;;;4862426;29;20453;-95
2021/09/02 07:01:36;;;;;;;13.97;9.13;;;15.30;99.90;;;;;;4857855;29;20437;-95
2021/09/02 07:04:03;;;;;;;14.40;10.32;;;15.20;99.90;;;;;;4875166;29;20500;-96
2021/09/02 07:06:31;;;;;;;15.90;10.68;;;15.40;99.90;;;;;;4865042;29;20492;-95
2021/09/02 07:08:58;;;;;;;14.00;9.93;;;15.60;99.90;;;;;;4884235;29;20515;-94
2021/09/02 07:11:25;;;;;;;12.63;8.65;;;15.80;99.90;;;;;;4870753;29;20459;-95
2021/09/02 07:13:53;;;;;;;15.77;9.20;;;15.60;99.90;;;;;;4873660;29;20465;-94
2021/09/02 07:16:20;;;;;;;14.35;9.77;;;15.60;99.90;;;;;;4874027;29;20419;-93
2021/09/02 07:18:47;;;;;;;15.40;10.57;;;15.60;99.90;;;;;;4872310;29;20440;-96
2021/09/02 07:21:14;;;;;;;15.25;9.68;;;15.70;99.90;;;;;;4872095;29;20427;-94
2021/09/02 07:23:49;;;;;;;13.32;9.43;;;15.50;99.90;;;;;;4874823;29;20440;-95
2021/09/02 07:33:02;;;;;;;9.97;6.20;;;16.10;99.90;;;;;;5434503;23;20806;-94
2021/09/02 07:35:34;;;;;;;10.18;5.88;;;16.20;99.90;;;;;;5022664;23;20427;-95
2021/09/02 07:38:08;;;;;;;13.07;6.30;;;16.40;99.90;;;;;;4943602;29;20485;-96
2021/09/02 07:40:43;;;;;;;10.20;5.90;;;16.30;99.90;;;;;;4938407;29;20918;-95
2021/09/02 07:43:29;;;;;;;8.13;5.63;;;16.10;99.90;;;;;;4943183;29;20425;-95
2021/09/02 07:46:03;;;;;;;8.52;5.55;;;15.80;99.90;;;;;;4942681;29;20514;-96
2021/09/02 07:48:41;;;;;;;8.27;5.32;;;15.50;99.90;;;;;;4941212;29;20429;-96
2021/09/02 07:51:15;;;;;;;9.07;5.38;;;15.60;99.90;;;;;;4941701;29;20516;-95
2021/09/02 07:53:47;;;;;;;10.18;6.07;;;15.70;99.90;;;;;;4941901;29;20433;-95
2021/09/02 07:56:38;;;;;;;13.82;7.35;;;15.60;99.90;;;;;;4944866;29;20426;-96
2021/09/02 07:59:09;;;;;;;10.70;6.30;;;15.60;99.90;;;;;;4941773;29;20468;-96
2021/09/02 08:01:58;;;;;;;9.23;6.25;;;15.50;99.90;;;;;;4941495;29;20434;-96
2021/09/02 08:05:20;;;;;;;10.18;6.75;;;15.40;99.90;;;;;;4945129;29;20461;-95
2021/09/02 08:08:16;;;;;;;10.47;6.13;;;15.40;99.90;;;;;;4943835;29;20464;-96
2021/09/02 08:10:54;;;;;;;12.33;6.03;;;15.40;99.90;;;;;;4941036;29;20426;-95
2021/09/02 08:13:25;;;;;;;10.13;7.25;;;15.30;99.90;;;;;;4959560;29;20504;-96
2021/09/02 08:16:04;;;;;;;9.88;6.65;;;15.60;99.90;;;;;;4941821;29;20434;-96
2021/09/02 08:18:58;;;;;;;10.50;6.40;;;15.90;99.90;;;;;;4946569;29;20578;-96
2021/09/02 08:21:38;;;;;;;12.57;7.13;;;15.70;99.90;;;;;;4944030;29;20465;-96
2021/09/02 08:24:36;;;;;;;11.35;6.93;;;15.80;99.90;;;;;;4946988;29;20438;-95
2021/09/02 08:27:22;;;;;;;10.10;7.00;;;16.00;99.90;;;;;;4945831;29;20925;-95
2021/09/02 08:29:56;;;;;;;9.57;7.00;;;16.30;99.90;;;;;;4957827;29;20910;-95
2021/09/02 08:32:29;;;;;;;11.32;7.22;;;16.50;99.90;;;;;;4944868;29;20438;-96
2021/09/02 08:35:00;;;;;;;10.00;6.40;;;16.50;99.90;;;;;;4960073;23;20891;-96
2021/09/02 08:38:04;;;;;;;11.32;6.88;;;16.40;99.90;;;;;;4945389;29;20446;-96
2021/09/02 08:40:40;;;;;;;14.07;7.40;;;16.30;99.90;;;;;;4938991;29;20467;-95
2021/09/02 08:43:16;;;;;;;11.55;7.60;;;16.30;99.90;;;;;;4946415;29;20435;-96
2021/09/02 08:46:22;;;;;;;13.02;7.43;;;16.30;99.90;;;;;;4943800;29;20412;-96
2021/09/02 08:48:52;;;;;;;12.20;7.13;;;16.30;99.90;;;;;;4942952;29;20480;-96
2021/09/02 08:52:07;;;;;;;9.65;6.32;;;16.30;99.90;;;;;;4942813;29;20407;-96
2021/09/02 08:54:43;;;;;;;10.18;6.20;;;16.30;99.90;;;;;;4946189;29;20430;-96
2021/09/02 08:57:31;;;;;;;9.27;5.90;;;16.30;99.90;;;;;;4928790;29;20435;-95
2021/09/02 09:00:23;;;;;;;9.90;5.80;;;16.20;99.90;;;;;;4942110;29;20447;-96
2021/09/02 09:03:37;;;;;;;7.97;5.60;;;16.20;99.90;;;;;;4947358;29;20998;-96
2021/09/02 09:06:21;;;;;;;9.52;5.72;;;16.10;99.90;;;;;;4938729;29;20427;-95
2021/09/02 09:09:21;;;;;;;9.82;6.20;;;16.20;99.90;;;;;;4945582;29;20420;-96
2021/09/02 09:12:37;;;;;;;10.07;5.60;;;16.20;99.90;;;;;;4948334;29;20432;-96
2021/09/02 09:15:55;;;;;;;8.20;5.32;;;16.60;99.90;;;;;;4959913;29;20455;-95
2021/09/02 09:19:03;;;;;;;9.40;5.72;;;17.10;99.90;;;;;;4909226;29;20446;-96
2021/09/02 09:21:59;;;;;;;11.13;5.53;;;17.20;99.90;;;;;;4894012;29;20564;-96
2021/09/02 09:24:54;;;;;;;9.52;6.00;;;17.10;99.90;;;;;;4896145;29;20433;-96
2021/09/02 09:27:42;;;;;;;8.32;5.95;;;17.60;99.90;;;;;;4892547;29;20435;-96
2021/09/02 09:30:19;;;;;;;13.23;5.93;;;17.50;99.90;;;;;;4890179;29;21023;-96
2021/09/02 09:33:20;;;;;;;9.57;6.07;;;17.80;99.90;;;;;;4895284;29;20462;-96
2021/09/02 09:36:01;;;;;;;10.65;6.40;;;17.80;99.90;;;;;;4890354;29;20537;-95
2021/09/02 09:38:39;;;;;;;10.43;6.53;;;17.50;99.90;;;;;;4888339;29;21056;-95
2021/09/02 09:41:06;;;;;;;8.93;6.77;;;17.40;99.90;;;;;;4893382;29;20435;-96
2021/09/02 09:43:39;;;;;;;9.63;6.40;;;17.80;99.90;;;;;;4892432;29;20521;-95
2021/09/02 09:46:09;;;;;;;8.43;6.47;;;18.00;99.90;;;;;;4888893;29;20584;-95
2021/09/02 09:48:42;;;;;;;11.57;6.28;;;18.10;99.90;;;;;;4888883;29;20439;-95
2021/09/02 09:51:24;;;;;;;7.70;5.53;;;17.90;99.90;;;;;;4893118;29;20467;-95
2021/09/02 09:54:05;;;;;;;7.60;5.30;;;17.60;99.90;;;;;;4893445;29;20438;-95
2021/09/02 09:56:33;;;;;;;9.43;5.80;;;17.50;99.90;;;;;;4945165;29;20435;-96
2021/09/02 09:59:09;;;;;;;10.77;6.27;;;17.60;99.90;;;;;;4941348;29;20444;-95
2021/09/02 10:01:55;;;;;;;8.77;5.33;;;17.70;99.90;;;;;;4946886;29;20434;-96
2021/09/02 10:04:39;;;;;;;9.47;5.30;;;17.90;99.90;;;;;;4948812;29;20440;-96
2021/09/02 10:07:33;;;;;;;9.75;5.95;;;18.10;99.90;;;;;;4944100;29;20528;-94
2021/09/02 10:10:27;;;;;;;9.10;5.45;;;18.30;99.90;;;;;;4947203;29;20432;-96
2021/09/02 10:13:08;;;;;;;10.70;5.05;;;18.20;99.90;;;;;;4945556;29;20442;-96
2021/09/02 10:15:35;;;;;;;6.05;4.30;;;18.40;99.90;;;;;;4943638;29;20430;-96
2021/09/02 10:18:09;;;;;;;11.13;5.50;;;18.40;99.90;;;;;;4945500;29;20436;-95
2021/09/02 10:20:38;;;;;;;8.23;5.50;;;18.40;99.90;;;;;;4945789;29;20819;-95
2021/09/02 10:23:07;;;;;;;7.00;4.63;;;18.60;99.90;;;;;;4946515;29;20427;-94
2021/09/02 10:26:00;;;;;;;8.90;5.15;;;18.70;99.90;;;;;;4944102;29;20419;-96
2021/09/02 10:28:36;;;;;;;8.48;4.60;;;18.70;99.90;;;;;;4943048;29;20466;-95
2021/09/02 10:31:22;;;;;;;7.75;4.80;;;18.70;99.90;;;;;;4929770;29;20467;-96
2021/09/02 10:33:50;;;;;;;6.07;4.70;;;18.60;99.90;;;;;;4945656;29;20431;-95
2021/09/02 10:36:27;;;;;;;9.68;4.63;;;18.70;99.90;;;;;;4939941;29;20488;-95
2021/09/02 10:38:56;;;;;;;5.60;4.07;;;18.60;99.90;;;;;;4942549;29;20961;-95
2021/09/02 10:41:43;;;;;;;8.10;4.63;;;18.70;99.90;;;;;;4928915;29;20442;-95
2021/09/02 10:44:21;;;;;;;10.85;4.60;;;18.70;99.90;;;;;;4946149;29;20418;-95
2021/09/02 10:46:53;;;;;;;6.90;3.92;;;18.60;99.90;;;;;;4944576;29;20907;-95
2021/09/02 10:49:29;;;;;;;9.75;4.60;;;18.50;99.90;;;;;;4940351;29;20423;-95
2021/09/02 10:52:04;;;;;;;7.95;4.05;;;18.50;99.90;;;;;;4944038;29;20431;-95
2021/09/02 10:54:35;;;;;;;5.90;4.37;;;18.70;99.90;;;;;;4942560;29;20442;-96
2021/09/02 10:57:14;;;;;;;6.93;4.30;;;18.70;99.90;;;;;;4944122;29;20470;-94
2021/09/02 10:59:54;;;;;;;5.18;3.90;;;18.70;99.90;;;;;;4945675;29;20476;-95
2021/09/02 11:02:45;;;;;;;5.05;3.92;;;18.90;99.90;;;;;;4952170;29;20446;-95
2021/09/02 11:05:15;;;;;;;5.63;3.80;;;18.90;99.90;;;;;;4943941;29;20431;-95
2021/09/02 11:07:51;;;;;;;6.28;3.75;;;19.00;99.90;;;;;;4940825;29;20427;-95
2021/09/02 11:10:21;;;;;;;5.25;4.13;;;19.10;99.90;;;;;;4941865;29;20506;-95
2021/09/02 11:13:05;;;;;;;5.65;3.97;;;19.20;99.90;;;;;;4942133;29;20521;-96
2021/09/02 11:15:35;;;;;;;7.28;4.05;;;19.10;99.90;;;;;;4941005;29;20431;-95
2021/09/02 11:18:05;;;;;;;5.47;3.50;;;19.20;99.90;;;;;;4939633;29;20435;-96
2021/09/02 11:20:44;;;;;;;6.85;3.72;;;19.30;99.90;;;;;;4944894;29;20423;-95
2021/09/02 11:23:14;;;;;;;5.00;3.60;;;19.40;99.90;;;;;;4941828;29;20458;-96
2021/09/02 11:25:46;;;;;;;8.15;3.95;;;19.40;99.90;;;;;;4941692;29;20435;-95
2021/09/02 11:28:18;;;;;;;7.63;3.93;;;19.30;99.90;;;;;;4944398;29;20491;-95
2021/09/02 11:30:45;;;;;;;4.77;3.33;;;19.20;99.90;;;;;;4927039;29;20458;-96
2021/09/02 11:33:13;;;;;;;6.43;3.83;;;19.30;99.90;;;;;;4943932;29;20427;-94
2021/09/02 11:35:41;;;;;;;5.18;3.80;;;19.40;99.90;;;;;;4942290;29;20504;-95
2021/09/02 11:38:14;;;;;;;5.68;3.47;;;19.40;99.90;;;;;;4957590;29;20474;-94
2021/09/02 11:40:45;;;;;;;5.23;3.40;;;19.60;99.90;;;;;;4944167;29;20942;-95
2021/09/02 11:43:17;;;;;;;6.40;3.55;;;19.80;99.90;;;;;;4944072;29;20438;-95
2021/09/02 11:45:52;;;;;;;5.60;3.75;;;19.80;99.90;;;;;;4942680;29;20926;-95
2021/09/02 11:48:22;;;;;;;6.03;4.00;;;19.90;99.90;;;;;;4942730;29;20434;-94
2021/09/02 11:51:00;;;;;;;5.20;3.70;;;20.00;99.90;;;;;;4943546;29;20427;-96
2021/09/02 11:53:30;;;;;;;5.47;3.20;;;20.20;99.90;;;;;;4944321;29;20432;-94
2021/09/02 11:56:11;;;;;;;5.10;3.95;;;20.30;99.90;;;;;;4940703;29;20435;-96
2021/09/02 11:58:41;;;;;;;5.80;3.80;;;20.50;99.90;;;;;;4942943;29;20431;-96
2021/09/02 12:01:09;;;;;;;6.47;4.10;;;20.60;99.90;;;;;;4944363;29;20444;-95
2021/09/02 12:03:37;;;;;;;6.27;3.47;;;20.70;99.90;;;;;;4947190;29;20432;-95
2021/09/02 12:06:05;;;;;;;5.40;3.73;;;21.00;99.90;;;;;;4943991;29;20435;-95
2021/09/02 12:08:35;;;;;;;6.93;3.50;;;21.20;99.90;;;;;;4941466;29;20491;-94
2021/09/02 12:11:07;;;;;;;5.40;3.90;;;21.50;99.90;;;;;;4969558;23;20445;-94
2021/09/02 12:13:36;;;;;;;5.63;3.72;;;21.70;99.90;;;;;;4945401;29;20418;-95
2021/09/02 12:16:11;;;;;;;5.72;4.00;;;21.50;99.90;;;;;;4946007;29;20413;-95
2021/09/02 12:18:42;;;;;;;4.75;3.67;;;21.60;99.90;;;;;;4946564;29;20418;-95
2021/09/02 12:21:14;;;;;;;7.72;3.90;;;22.10;99.90;;;;;;4947618;29;20442;-94
2021/09/02 12:23:46;;;;;;;5.38;3.80;;;22.40;99.90;;;;;;4948414;29;20420;-95
2021/09/02 12:26:16;;;;;;;6.03;3.63;;;22.30;99.90;;;;;;4944151;29;20437;-94
2021/09/02 12:28:46;;;;;;;6.30;3.70;;;22.40;99.90;;;;;;4947530;29;20470;-95
2021/09/02 12:31:24;;;;;;;4.82;3.80;;;22.50;99.90;;;;;;4950437;29;20920;-96
2021/09/02 12:34:14;;;;;;;5.05;3.65;;;22.90;99.90;;;;;;4951436;29;20434;-95
2021/09/02 12:36:42;;;;;;;6.30;3.97;;;23.30;99.90;;;;;;4950346;29;20889;-95
2021/09/02 12:39:18;;;;;;;6.60;4.10;;;23.50;99.90;;;;;;4951814;29;20437;-95
2021/09/02 12:41:53;;;;;;;6.68;4.10;;;23.40;99.60;;;;;;4951117;29;20445;-95
2021/09/02 12:44:35;;;;;;;6.13;3.97;;;23.30;99.90;;;;;;4948782;29;20431;-95
2021/09/02 12:47:17;;;;;;;5.97;4.10;;;23.60;99.90;;;;;;4962066;28;20424;-95
2021/09/02 12:49:55;;;;;;;6.03;4.47;;;23.50;98.60;;;;;;4954264;29;20422;-96
2021/09/02 12:52:33;;;;;;;5.47;3.70;;;23.20;98.50;;;;;;4938418;29;20430;-95
2021/09/02 12:55:18;;;;;;;6.05;4.07;;;23.40;97.30;;;;;;4967818;28;20468;-95
2021/09/02 12:57:52;;;;;;;8.75;4.20;;;23.70;99.90;;;;;;4945059;29;20417;-96
2021/09/02 13:00:21;;;;;;;5.67;4.03;;;24.10;95.50;;;;;;4950032;29;20493;-96
2021/09/02 13:02:56;;;;;;;5.47;3.83;;;24.20;95.70;;;;;;4950204;29;20508;-95
2021/09/02 13:05:25;;;;;;;5.47;4.05;;;24.10;97.90;;;;;;4951030;29;20440;-95
2021/09/02 13:08:04;;;;;;;6.15;3.92;;;24.50;96.40;;;;;;4949165;29;20422;-94
2021/09/02 13:10:46;;;;;;;6.78;4.20;;;25.10;94.50;;;;;;4950112;28;20501;-96
2021/09/02 13:13:20;;;;;;;5.97;4.00;;;24.70;94.00;;;;;;4953633;29;20433;-96
2021/09/02 13:15:47;;;;;;;5.45;3.80;;;24.70;96.10;;;;;;4949111;29;20426;-95
2021/09/02 13:18:14;;;;;;;5.78;3.80;;;24.50;94.80;;;;;;4948399;29;20442;-96
2021/09/02 13:20:50;;;;;;;5.28;3.88;;;24.50;94.50;;;;;;4950471;29;20441;-95
2021/09/02 13:23:20;;;;;;;6.85;4.03;;;24.50;91.20;;;;;;4949809;29;20937;-95
2021/09/02 13:25:53;;;;;;;6.15;3.90;;;24.50;94.10;;;;;;4948220;29;20450;-96
2021/09/02 13:28:28;;;;;;;6.07;3.85;;;24.30;93.60;;;;;;4949083;29;20430;-95
2021/09/02 13:31:03;;;;;;;5.50;3.90;;;24.70;93.50;;;;;;4948001;29;20489;-96
2021/09/02 13:33:40;;;;;;;6.32;3.60;;;24.90;92.40;;;;;;4948697;29;20509;-96
2021/09/02 13:36:14;;;;;;;11.13;3.93;;;24.90;91.10;;;;;;4946103;29;21000;-96
2021/09/02 13:38:46;;;;;;;5.38;4.00;;;24.80;94.30;;;;;;4950356;29;20434;-95
2021/09/02 13:41:26;;;;;;;4.85;3.85;;;24.70;92.30;;;;;;4946392;29;20488;-96
2021/09/02 13:43:56;;;;;;;5.87;3.90;;;24.90;93.60;;;;;;4947879;29;20786;-96
2021/09/02 13:46:30;;;;;;;5.55;3.90;;;25.20;93.20;;;;;;4943421;29;20464;-96
2021/09/02 13:49:10;;;;;;;5.63;3.70;;;25.20;91.40;;;;;;4948120;29;20770;-96